createdAt,value
2024-02-18T00:00:24.369Z,99699.00
2024-02-18T00:02:51.900Z,99681.22
2024-02-18T00:05:19.237Z,99683.50
2024-02-18T00:07:46.531Z,99682.31
2024-02-18T00:10:13.800Z,99674.06
2024-02-18T00:12:41.210Z,99675.59
2024-02-18T00:15:08.916Z,99671.16
2024-02-18T00:17:36.238Z,99670.63
2024-02-18T00:20:05.398Z,99664.63
2024-02-18T00:22:32.756Z,99664.91
2024-02-18T00:25:00.102Z,99662.72
2024-02-18T00:27:27.913Z,99655.16
2024-02-18T00:29:55.228Z,99657.78
2024-02-18T00:32:22.576Z,99652.84
2024-02-18T00:34:49.965Z,99644.81
2024-02-18T00:37:19.033Z,99642.63
2024-02-18T00:39:46.390Z,99640.88
2024-02-18T00:42:13.747Z,99607.88
2024-02-18T00:44:41.020Z,99630.41
2024-02-18T00:47:08.344Z,99632.09
2024-02-18T00:49:36.247Z,99623.53
2024-02-18T00:52:04.749Z,99620.94
2024-02-18T00:54:32.422Z,99620.94
2024-02-18T00:56:59.813Z,99624.28
2024-02-18T00:59:27.441Z,99616.97
2024-02-18T01:01:54.883Z,99612.22
2024-02-18T01:04:22.496Z,99614.84
2024-02-18T01:06:49.925Z,99607.13
2024-02-18T01:09:17.419Z,99607.66
2024-02-18T01:11:44.836Z,99597.81
2024-02-18T01:14:12.146Z,99590.31
2024-02-18T01:16:40.833Z,99588.53
2024-02-18T01:19:08.407Z,99596.38
2024-02-18T01:21:35.877Z,99591.53
2024-02-18T01:24:03.191Z,99542.34
2024-02-18T01:26:30.442Z,99578.34
2024-02-18T01:28:57.725Z,99571.00
2024-02-18T01:31:25.111Z,99580.22
2024-02-18T01:33:52.733Z,99579.06
2024-02-18T01:36:20.121Z,99577.63
2024-02-18T01:38:47.500Z,99567.22
2024-02-18T01:41:14.794Z,99540.94
2024-02-18T01:43:42.124Z,99566.75
2024-02-18T01:46:10.210Z,99554.47
2024-02-18T01:48:38.350Z,99563.91
2024-02-18T01:51:24.946Z,99561.44
2024-02-18T01:53:53.362Z,99535.38
2024-02-18T01:56:22.482Z,99556.91
2024-02-18T01:58:50.214Z,99513.13
2024-02-18T02:01:18.817Z,99559.19
2024-02-18T02:03:47.525Z,99555.16
2024-02-18T02:06:16.871Z,99543.69
2024-02-18T02:08:45.717Z,99536.19
2024-02-18T02:11:13.435Z,99535.72
2024-02-18T02:13:40.915Z,99531.22
2024-02-18T02:16:08.608Z,99533.31
2024-02-18T02:18:36.225Z,99529.03
2024-02-18T02:21:03.760Z,99521.25
2024-02-18T02:23:32.822Z,99530.38
2024-02-18T02:26:00.388Z,99525.56
2024-02-18T02:28:30.406Z,99526.72
2024-02-18T02:30:58.182Z,99520.03
2024-02-18T02:33:26.451Z,99534.25
2024-02-18T02:35:53.760Z,99527.16
2024-02-18T02:38:21.103Z,99535.38
2024-02-18T02:40:48.352Z,99489.22
2024-02-18T02:43:17.913Z,99535.03
2024-02-18T02:45:45.419Z,99529.34
2024-02-18T02:48:12.719Z,99521.28
2024-02-18T02:50:40.455Z,99517.47
2024-02-18T02:53:07.798Z,99517.25
2024-02-18T02:55:35.300Z,99520.13
2024-02-18T02:58:02.618Z,99517.28
2024-02-18T03:00:32.192Z,99514.41
2024-02-18T03:02:59.919Z,99511.09
2024-02-18T03:05:27.232Z,99511.13
2024-02-18T03:07:54.505Z,99508.28
2024-02-18T03:10:21.852Z,99507.59
2024-02-18T03:12:49.297Z,99503.78
2024-02-18T03:15:16.648Z,99504.72
2024-02-18T03:17:43.931Z,99494.06
2024-02-18T03:20:13.471Z,99495.94
2024-02-18T03:22:41.190Z,99494.13
2024-02-18T03:25:09.222Z,99470.34
2024-02-18T03:27:36.782Z,99458.06
2024-02-18T03:30:04.646Z,99483.47
2024-02-18T03:32:33.941Z,99490.22
2024-02-18T03:35:01.410Z,99459.22
2024-02-18T03:37:30.524Z,99478.84
2024-02-18T03:39:58.138Z,99471.03
2024-02-18T03:42:25.611Z,99487.16
2024-02-18T03:44:52.972Z,99489.78
2024-02-18T03:47:24.830Z,99483.66
2024-02-18T03:49:52.439Z,99483.34
2024-02-18T03:52:20.956Z,99484.28
2024-02-18T03:54:48.378Z,99481.56
2024-02-18T03:57:15.764Z,99485.84
2024-02-18T03:59:43.390Z,99488.28
2024-02-18T04:02:10.719Z,99487.84
2024-02-18T04:04:38.081Z,99483.78
2024-02-18T04:07:05.577Z,99454.47
2024-02-18T04:09:33.479Z,99466.56
2024-02-18T04:12:00.951Z,99484.50
2024-02-18T04:14:28.450Z,99486.59
2024-02-18T04:16:55.740Z,99487.28
2024-02-18T04:19:23.153Z,99488.75
2024-02-18T04:21:50.594Z,99486.16
2024-02-18T04:24:18.058Z,99493.59
2024-02-18T04:26:45.310Z,99494.41
2024-02-18T04:29:12.679Z,99495.19
2024-02-18T04:31:42.468Z,99489.31
2024-02-18T04:34:09.864Z,99499.50
2024-02-18T04:36:37.160Z,99498.56
2024-02-18T04:39:04.550Z,99487.41
2024-02-18T04:41:31.899Z,99488.69
2024-02-18T04:43:59.299Z,99497.56
2024-02-18T04:46:26.568Z,99500.44
2024-02-18T04:48:55.293Z,99508.25
2024-02-18T04:51:23.596Z,99507.44
2024-02-18T04:53:50.903Z,99509.88
2024-02-18T04:56:18.179Z,99516.03
2024-02-18T04:58:45.439Z,99522.91
2024-02-18T05:01:12.859Z,99530.53
2024-02-18T05:03:42.763Z,99495.25
2024-02-18T05:06:10.212Z,99520.47
2024-02-18T05:08:37.571Z,99532.88
2024-02-18T05:11:05.313Z,99533.81
2024-02-18T05:13:32.709Z,99535.25
2024-02-18T05:16:00.081Z,99539.16
2024-02-18T05:18:27.727Z,99530.03
2024-02-18T05:20:55.188Z,99535.56
2024-02-18T05:23:22.570Z,99534.97
2024-02-18T05:25:49.852Z,99536.00
2024-02-18T05:28:17.312Z,99541.13
2024-02-18T05:30:44.645Z,99542.69
2024-02-18T05:33:12.054Z,99542.56
2024-02-18T05:35:39.494Z,99547.56
2024-02-18T05:38:06.899Z,99567.47
2024-02-18T05:40:34.250Z,99557.38
2024-02-18T05:43:01.646Z,99551.66
2024-02-18T05:45:32.793Z,99560.38
2024-02-18T05:48:00.459Z,99571.25
2024-02-18T05:50:46.245Z,99540.69
2024-02-18T05:53:14.026Z,99576.22
2024-02-18T05:55:41.558Z,99578.84
2024-02-18T05:58:09.182Z,99556.59
2024-02-18T06:00:36.584Z,99585.56
2024-02-18T06:03:04.084Z,99574.16
2024-02-18T06:05:32.024Z,99567.69
2024-02-18T06:07:59.617Z,99577.78
2024-02-18T06:10:27.080Z,99591.16
2024-02-18T06:12:54.790Z,99592.69
2024-02-18T06:15:22.238Z,99597.50
2024-02-18T06:17:50.326Z,99599.91
2024-02-18T06:20:17.811Z,99592.31
2024-02-18T06:22:45.191Z,99600.09
2024-02-18T06:25:12.719Z,99602.72
2024-02-18T06:27:40.171Z,99604.56
2024-02-18T06:30:08.529Z,99597.78
2024-02-18T06:32:36.098Z,99623.59
2024-02-18T06:35:03.945Z,99627.88
2024-02-18T06:37:32.773Z,99621.22
2024-02-18T06:40:00.294Z,99625.50
2024-02-18T06:42:27.936Z,99635.41
2024-02-18T06:44:55.295Z,99626.66
2024-02-18T06:47:22.789Z,99630.34
2024-02-18T06:49:50.271Z,99636.41
2024-02-18T06:52:17.890Z,99621.47
2024-02-18T06:54:45.338Z,99636.75
2024-02-18T06:57:12.692Z,99635.91
2024-02-18T06:59:40.091Z,99633.78
2024-02-18T07:02:25.925Z,99627.88
2024-02-18T07:04:55.239Z,99645.84
2024-02-18T07:07:29.808Z,99644.28
2024-02-18T07:09:57.266Z,99621.53
2024-02-18T07:12:29.683Z,99656.75
2024-02-18T07:15:02.557Z,99657.94
2024-02-18T07:17:32.955Z,99640.66
2024-02-18T07:20:01.117Z,99668.00
2024-02-18T07:22:29.379Z,99622.34
2024-02-18T07:24:58.064Z,99664.78
2024-02-18T07:27:25.973Z,99656.03
2024-02-18T07:29:53.522Z,99675.00
2024-02-18T07:32:20.917Z,99668.75
2024-02-18T07:34:48.329Z,99632.59
2024-02-18T07:37:15.816Z,99672.63
2024-02-18T07:39:43.557Z,99673.59
2024-02-18T07:42:11.664Z,99679.03
2024-02-18T07:44:39.341Z,99686.75
2024-02-18T07:47:06.747Z,99687.81
2024-02-18T07:49:34.244Z,99690.25
2024-02-18T07:52:20.599Z,99686.44
2024-02-18T07:54:48.424Z,99691.06
2024-02-18T07:57:16.425Z,99688.50
2024-02-18T07:59:43.863Z,99681.41
2024-02-18T08:02:11.751Z,99712.22
2024-02-18T08:04:39.283Z,99707.63
2024-02-18T08:07:06.824Z,99703.19
2024-02-18T08:09:34.244Z,99722.09
2024-02-18T08:12:01.627Z,99728.22
2024-02-18T08:14:29.102Z,99722.53
2024-02-18T08:16:57.779Z,99720.56
2024-02-18T08:19:25.432Z,99738.53
2024-02-18T08:21:53.443Z,99700.56
2024-02-18T08:24:20.867Z,99746.41
2024-02-18T08:26:48.174Z,99758.09
2024-02-18T08:29:15.532Z,99762.16
2024-02-18T08:31:42.772Z,99746.53
2024-02-18T08:34:10.208Z,99768.78
2024-02-18T08:36:37.584Z,99772.44
2024-02-18T08:39:05.160Z,99765.00
2024-02-18T08:41:32.761Z,99781.41
2024-02-18T08:44:00.127Z,99764.09
2024-02-18T08:46:27.541Z,99792.81
2024-02-18T08:48:56.415Z,99789.38
2024-02-18T08:51:23.927Z,99802.47
2024-02-18T08:53:51.365Z,99792.84
2024-02-18T08:56:18.687Z,99803.88
2024-02-18T08:58:46.371Z,99758.75
2024-02-18T09:01:13.964Z,99804.28
2024-02-18T09:03:41.559Z,99798.13
2024-02-18T09:06:09.122Z,99789.06
2024-02-18T09:08:36.910Z,99796.00
2024-02-18T09:11:04.902Z,99788.38
2024-02-18T09:13:32.598Z,99766.56
2024-02-18T09:16:00.032Z,99791.25
2024-02-18T09:18:29.232Z,99771.13
2024-02-18T09:20:57.368Z,99793.69
2024-02-18T09:23:24.703Z,99797.75
2024-02-18T09:25:52.017Z,99811.09
2024-02-18T09:28:20.087Z,99802.59
2024-02-18T09:30:47.556Z,99799.91
2024-02-18T09:33:14.960Z,99799.91
2024-02-18T09:35:42.412Z,99802.53
2024-02-18T09:38:10.737Z,99812.03
2024-02-18T09:40:38.099Z,99811.56
2024-02-18T09:43:05.908Z,99810.34
2024-02-18T09:45:36.568Z,99805.72
2024-02-18T09:48:08.982Z,99817.94
2024-02-18T09:50:37.380Z,99814.91
2024-02-18T09:53:07.178Z,99811.13
2024-02-18T09:55:34.584Z,99821.28
2024-02-18T09:58:01.980Z,99814.19
2024-02-18T10:00:29.484Z,99812.50
2024-02-18T10:03:16.366Z,99822.94
2024-02-18T10:05:43.869Z,99827.41
2024-02-18T10:08:11.286Z,99832.91
2024-02-18T10:10:38.738Z,99824.72
2024-02-18T10:13:08.177Z,99836.00
2024-02-18T10:15:36.252Z,99838.78
2024-02-18T10:18:04.143Z,99849.25
2024-02-18T10:20:31.815Z,99859.25
2024-02-18T10:22:59.284Z,99853.50
2024-02-18T10:25:26.693Z,99850.56
2024-02-18T10:28:01.065Z,99855.53
2024-02-18T10:30:46.938Z,99816.63
2024-02-18T10:33:14.990Z,99864.44
2024-02-18T10:35:44.690Z,99870.38
2024-02-18T10:38:19.796Z,99856.75
2024-02-18T10:40:53.542Z,99872.09
2024-02-18T10:43:22.590Z,99837.75
2024-02-18T10:45:50.834Z,99875.47
2024-02-18T10:48:18.963Z,99875.66
2024-02-18T10:50:51.427Z,99870.84
2024-02-18T10:53:21.731Z,99888.56
2024-02-18T10:55:58.187Z,99891.69
2024-02-18T10:58:56.947Z,99884.66
2024-02-18T11:01:27.297Z,99903.84
2024-02-18T11:04:09.084Z,99891.19
2024-02-18T11:06:38.063Z,99909.13
2024-02-18T11:09:09.880Z,99906.97
2024-02-18T11:11:37.871Z,99901.03
2024-02-18T11:14:07.259Z,99894.44
2024-02-18T11:16:36.438Z,99913.69
2024-02-18T11:19:07.017Z,99862.72
2024-02-18T11:21:34.674Z,99917.75
2024-02-18T11:24:02.159Z,99896.09
2024-02-18T11:26:29.770Z,99916.28
2024-02-18T11:29:04.209Z,99919.34
2024-02-18T11:31:32.368Z,99920.75
2024-02-18T11:34:00.454Z,99890.47
2024-02-18T11:36:28.670Z,99923.06
2024-02-18T11:38:58.903Z,99894.50
2024-02-18T11:41:29.728Z,99934.72
2024-02-18T11:44:14.762Z,99928.28
2024-02-18T11:46:44.886Z,99935.38
2024-02-18T11:49:13.581Z,99906.81
2024-02-18T11:52:00.294Z,99941.63
2024-02-18T11:54:28.243Z,99924.66
2024-02-18T11:56:55.502Z,99952.41
2024-02-18T11:59:22.813Z,99953.00
2024-02-18T12:01:51.647Z,99941.50
2024-02-18T12:04:20.546Z,99955.13
2024-02-18T12:06:48.414Z,99942.16
2024-02-18T12:09:18.015Z,99956.22
2024-02-18T12:11:47.797Z,99938.28
2024-02-18T12:14:15.457Z,99963.44
2024-02-18T12:16:46.896Z,99942.81
2024-02-18T12:19:15.628Z,99949.94
2024-02-18T12:21:43.179Z,99975.13
2024-02-18T12:24:10.581Z,99962.16
2024-02-18T12:26:37.896Z,99961.38
2024-02-18T12:29:06.083Z,99972.63
2024-02-18T12:31:36.062Z,99964.41
2024-02-18T12:34:03.705Z,99976.38
2024-02-18T12:36:31.221Z,99985.75
2024-02-18T12:38:58.706Z,99963.00
2024-02-18T12:41:26.383Z,99972.28
2024-02-18T12:44:26.583Z,99966.09
2024-02-18T12:46:42.702Z,99981.38
2024-02-18T12:49:11.460Z,99984.06
2024-02-18T12:51:40.897Z,99979.25
2024-02-18T12:54:08.337Z,99969.09
2024-02-18T12:56:36.162Z,99963.06
2024-02-18T12:59:03.887Z,99993.66
2024-02-18T13:01:31.326Z,99997.69
2024-02-18T13:03:58.921Z,100009.88
2024-02-18T13:06:26.988Z,100016.59
2024-02-18T13:08:54.353Z,100018.44
2024-02-18T13:11:23.425Z,100027.22
2024-02-18T13:13:50.840Z,100038.06
2024-02-18T13:16:20.376Z,100015.50
2024-02-18T13:18:47.875Z,100040.00
2024-02-18T13:21:16.541Z,100035.59
2024-02-18T13:23:43.860Z,100053.81
2024-02-18T13:26:11.530Z,100057.34
2024-02-18T13:28:39.100Z,100064.91
2024-02-18T13:31:06.709Z,100061.22
2024-02-18T13:33:34.774Z,100066.41
2024-02-18T13:36:02.327Z,100062.28
2024-02-18T13:38:29.649Z,100066.97
2024-02-18T13:40:57.036Z,100065.44
2024-02-18T13:43:24.341Z,100068.81
2024-02-18T13:45:52.814Z,100075.78
2024-02-18T13:48:20.425Z,100079.06
2024-02-18T13:50:47.823Z,100087.66
2024-02-18T13:53:15.699Z,100095.69
2024-02-18T13:55:43.028Z,100091.59
2024-02-18T13:58:10.417Z,100055.06
2024-02-18T14:00:38.737Z,100099.53
2024-02-18T14:03:06.384Z,100097.38
2024-02-18T14:05:34.854Z,100089.75
2024-02-18T14:08:02.261Z,100104.94
2024-02-18T14:10:29.588Z,100103.31
2024-02-18T14:12:56.991Z,100097.38
2024-02-18T14:15:25.496Z,100109.00
2024-02-18T14:17:57.115Z,100095.25
2024-02-18T14:20:24.979Z,100116.63
2024-02-18T14:22:52.978Z,100115.81
2024-02-18T14:25:22.164Z,100117.63
2024-02-18T14:28:11.843Z,100115.63
2024-02-18T14:30:40.081Z,100122.78
2024-02-18T14:33:07.749Z,100127.59
2024-02-18T14:35:37.823Z,100130.00
2024-02-18T14:38:06.273Z,100114.34
2024-02-18T14:40:33.634Z,100138.94
2024-02-18T14:43:01.134Z,100151.75
2024-02-18T14:45:28.656Z,100146.28
2024-02-18T14:47:56.144Z,100143.41
2024-02-18T14:50:24.914Z,100107.97
2024-02-18T14:52:55.694Z,100163.78
2024-02-18T14:55:23.062Z,100156.66
2024-02-18T14:57:50.555Z,100163.41
2024-02-18T15:00:18.682Z,100161.31
2024-02-18T15:02:48.478Z,100165.94
2024-02-18T15:05:15.983Z,100171.69
2024-02-18T15:07:43.606Z,100180.59
2024-02-18T15:10:11.559Z,100194.81
2024-02-18T15:12:39.118Z,100195.44
2024-02-18T15:15:07.252Z,100199.31
2024-02-18T15:17:34.686Z,100198.50
2024-02-18T15:20:20.550Z,100217.38
2024-02-18T15:22:48.054Z,100224.25
2024-02-18T15:25:15.973Z,100217.97
2024-02-18T15:27:43.478Z,100227.88
2024-02-18T15:30:11.632Z,100182.41
2024-02-18T15:32:41.077Z,100230.44
2024-02-18T15:35:08.981Z,100230.31
2024-02-18T15:37:37.381Z,100229.59
2024-02-18T15:40:05.549Z,100242.47
2024-02-18T15:42:35.302Z,100249.94
2024-02-18T15:45:03.414Z,100249.41
2024-02-18T15:47:32.808Z,100230.06
2024-02-18T15:50:00.962Z,100233.75
2024-02-18T15:52:28.681Z,100211.28
2024-02-18T15:54:56.097Z,100251.59
2024-02-18T15:57:23.636Z,100251.28
2024-02-18T15:59:51.040Z,100272.84
2024-02-18T16:02:18.373Z,100237.25
2024-02-18T16:04:46.306Z,100278.91
2024-02-18T16:07:14.797Z,100279.28
2024-02-18T16:09:49.289Z,100290.78
2024-02-18T16:12:16.807Z,100284.84
2024-02-18T16:14:44.267Z,100254.81
2024-02-18T16:17:11.596Z,100286.31
2024-02-18T16:19:39.107Z,100285.38
2024-02-18T16:22:06.479Z,100285.75
2024-02-18T16:24:34.876Z,100293.34
2024-02-18T16:27:02.378Z,100289.44
2024-02-18T16:29:31.500Z,100289.84
2024-02-18T16:31:58.845Z,100300.47
2024-02-18T16:34:26.317Z,100310.75
2024-02-18T16:36:53.752Z,100305.41
2024-02-18T16:39:21.068Z,100311.50
2024-02-18T16:41:48.376Z,100316.13
2024-02-18T16:44:16.123Z,100312.28
2024-02-18T16:46:43.497Z,100294.78
2024-02-18T16:49:14.624Z,100316.63
2024-02-18T16:51:45.603Z,100318.47
2024-02-18T16:54:13.646Z,100306.09
2024-02-18T16:56:41.098Z,100322.50
2024-02-18T16:59:08.405Z,100319.31
2024-02-18T17:01:35.862Z,100318.97
2024-02-18T17:04:04.320Z,100321.66
2024-02-18T17:06:32.458Z,100315.28
2024-02-18T17:08:59.941Z,100318.47
2024-02-18T17:11:27.373Z,100322.16
2024-02-18T17:13:55.674Z,100321.31
2024-02-18T17:16:23.515Z,100322.34
2024-02-18T17:18:52.420Z,100316.97
2024-02-18T17:21:19.917Z,100308.69
2024-02-18T17:23:47.428Z,100320.94
2024-02-18T17:26:14.822Z,100327.03
2024-02-18T17:28:42.200Z,100325.19
2024-02-18T17:31:09.603Z,100329.34
2024-02-18T17:33:37.489Z,100335.56
2024-02-18T17:36:05.204Z,100332.22
2024-02-18T17:38:32.637Z,100324.16
2024-02-18T17:40:59.894Z,100336.88
2024-02-18T17:43:28.177Z,100335.63
2024-02-18T17:45:55.601Z,100336.13
2024-02-18T17:48:23.054Z,100335.97
2024-02-18T17:50:51.030Z,100348.81
2024-02-18T17:53:18.392Z,100349.66
2024-02-18T17:55:48.765Z,100339.03
2024-02-18T17:58:16.486Z,100348.91
2024-02-18T18:00:45.089Z,100337.03
2024-02-18T18:03:12.480Z,100349.97
2024-02-18T18:05:39.886Z,100348.75
2024-02-18T18:08:07.818Z,100348.31
2024-02-18T18:10:35.394Z,100351.28
2024-02-18T18:13:02.904Z,100333.19
2024-02-18T18:15:30.851Z,100347.28
2024-02-18T18:17:58.801Z,100354.31
2024-02-18T18:20:26.119Z,100358.41
2024-02-18T18:22:54.863Z,100357.59
2024-02-18T18:25:22.207Z,100298.09
2024-02-18T18:27:49.628Z,100371.69
2024-02-18T18:30:17.211Z,100364.56
2024-02-18T18:32:46.435Z,100363.28
2024-02-18T18:35:14.013Z,100359.63
2024-02-18T18:37:41.519Z,100366.81
2024-02-18T18:40:09.609Z,100366.06
2024-02-18T18:42:55.415Z,100374.69
2024-02-18T18:45:24.204Z,100377.78
2024-02-18T18:47:53.279Z,100382.38
2024-02-18T18:50:20.747Z,100374.97
2024-02-18T18:52:48.050Z,100386.63
2024-02-18T18:55:15.625Z,100380.50
2024-02-18T18:57:43.022Z,100392.25
2024-02-18T19:00:11.897Z,100388.38
2024-02-18T19:02:39.177Z,100374.72
2024-02-18T19:05:25.301Z,100378.41
2024-02-18T19:07:52.847Z,100392.94
2024-02-18T19:10:38.997Z,100391.00
2024-02-18T19:13:18.524Z,100387.88
2024-02-18T19:15:56.842Z,100387.03
2024-02-18T19:18:24.414Z,100386.91
2024-02-18T19:20:51.854Z,100399.69
2024-02-18T19:23:21.636Z,100397.88
2024-02-18T19:25:49.188Z,100400.63
2024-02-18T19:28:16.700Z,100395.44
2024-02-18T19:30:44.241Z,100402.53
2024-02-18T19:33:11.700Z,100354.41
2024-02-18T19:35:40.150Z,100395.31
2024-02-18T19:38:09.107Z,100400.03
2024-02-18T19:40:36.772Z,100408.00
2024-02-18T19:43:04.372Z,100404.53
2024-02-18T19:45:31.823Z,100401.56
2024-02-18T19:47:59.442Z,100415.41
2024-02-18T19:50:26.869Z,100418.94
2024-02-18T19:52:54.321Z,100401.09
2024-02-18T19:55:21.853Z,100413.22
2024-02-18T19:57:51.012Z,100426.34
2024-02-18T20:00:18.983Z,100425.91
2024-02-18T20:03:05.485Z,100424.25
2024-02-18T20:05:35.062Z,100437.03
2024-02-18T20:08:21.591Z,100444.09
2024-02-18T20:10:49.124Z,100441.72
2024-02-18T20:13:36.257Z,100438.13
2024-02-18T20:16:05.198Z,100439.13
2024-02-18T20:18:32.807Z,100432.47
2024-02-18T20:21:01.769Z,100439.06
2024-02-18T20:23:29.281Z,100438.81
2024-02-18T20:25:56.582Z,100448.50
2024-02-18T20:28:24.122Z,100443.16
2024-02-18T20:30:51.614Z,100423.50
2024-02-18T20:33:19.342Z,100440.72
2024-02-18T20:35:52.636Z,100442.09
2024-02-18T20:38:21.376Z,100446.22
2024-02-18T20:40:53.190Z,100448.81
2024-02-18T20:43:20.698Z,100450.13
2024-02-18T20:45:48.196Z,100455.50
2024-02-18T20:48:15.636Z,100458.56
2024-02-18T20:50:42.966Z,100454.31
2024-02-18T20:53:11.660Z,100439.94
2024-02-18T20:55:39.045Z,100466.47
2024-02-18T20:58:07.187Z,100438.91
2024-02-18T21:00:34.671Z,100429.44
2024-02-18T21:03:02.419Z,100454.28
2024-02-18T21:05:31.625Z,100476.09
2024-02-18T21:08:03.547Z,100456.72
2024-02-18T21:10:31.635Z,100476.16
2024-02-18T21:12:59.219Z,100474.88
2024-02-18T21:15:28.196Z,100478.81
2024-02-18T21:17:55.525Z,100479.91
2024-02-18T21:20:23.831Z,100479.72
2024-02-18T21:22:51.198Z,100481.41
2024-02-18T21:25:18.529Z,100491.19
2024-02-18T21:27:46.326Z,100484.97
2024-02-18T21:30:13.863Z,100470.59
2024-02-18T21:32:41.249Z,100448.63
2024-02-18T21:35:08.880Z,100488.88
2024-02-18T21:37:38.646Z,100493.06
2024-02-18T21:40:07.437Z,100497.38
2024-02-18T21:42:35.893Z,100506.50
2024-02-18T21:45:04.253Z,100497.91
2024-02-18T21:47:31.665Z,100496.97
2024-02-18T21:49:59.012Z,100506.88
2024-02-18T21:52:26.465Z,100508.44
2024-02-18T21:54:53.782Z,100512.38
2024-02-18T21:57:21.165Z,100505.81
2024-02-18T21:59:48.592Z,100516.81
2024-02-18T22:02:15.991Z,100513.84
2024-02-18T22:04:43.439Z,100504.63
2024-02-18T22:07:17.290Z,100512.84
2024-02-18T22:09:46.970Z,100502.19
2024-02-18T22:12:14.888Z,100515.28
2024-02-18T22:14:42.519Z,100518.34
2024-02-18T22:17:10.511Z,100514.97
2024-02-18T22:19:38.650Z,100483.00
2024-02-18T22:22:06.109Z,100524.16
2024-02-18T22:24:33.988Z,100513.50
2024-02-18T22:27:01.631Z,100503.69
2024-02-18T22:29:29.476Z,100536.56
2024-02-18T22:31:56.943Z,100535.03
2024-02-18T22:34:24.537Z,100540.81
2024-02-18T22:36:51.980Z,100543.31
2024-02-18T22:39:25.644Z,100542.66
2024-02-18T22:41:53.318Z,100550.81
2024-02-18T22:44:20.664Z,100553.53
2024-02-18T22:46:48.070Z,100558.03
2024-02-18T22:49:15.597Z,100560.31
2024-02-18T22:51:52.251Z,100541.22
2024-02-18T22:54:20.209Z,100571.28
2024-02-18T22:56:47.563Z,100574.88
2024-02-18T22:59:15.137Z,100578.31
2024-02-18T23:01:42.689Z,100569.72
2024-02-18T23:04:10.162Z,100589.16
2024-02-18T23:06:37.541Z,100584.06
2024-02-18T23:09:04.958Z,100580.78
2024-02-18T23:11:32.398Z,100592.59
2024-02-18T23:14:00.073Z,100586.94
2024-02-18T23:16:27.650Z,100586.63
2024-02-18T23:18:55.142Z,100590.81
2024-02-18T23:21:22.595Z,100593.22
2024-02-18T23:23:49.840Z,100574.09
2024-02-18T23:26:17.911Z,100596.78
2024-02-18T23:28:45.269Z,100598.72
2024-02-18T23:31:12.603Z,100594.94
2024-02-18T23:33:40.091Z,100596.63
2024-02-18T23:36:08.013Z,100590.28
2024-02-18T23:38:35.364Z,100605.06
2024-02-18T23:41:03.542Z,100604.22
2024-02-18T23:43:39.549Z,100599.09
2024-02-18T23:46:08.843Z,100609.22
2024-02-18T23:48:36.964Z,100611.75
2024-02-18T23:51:05.116Z,100590.28
2024-02-18T23:53:32.514Z,100590.06
2024-02-18T23:55:59.964Z,100617.88
2024-02-18T23:58:27.516Z,100615.00
